createdAt,value
2023-03-26T00:02:32.476Z,4.78
2023-03-26T00:07:35.660Z,5.43
2023-03-26T00:12:51.867Z,1.15
2023-03-26T00:18:04.746Z,1.48
2023-03-26T00:23:10.234Z,0.60
2023-03-26T00:28:17.312Z,0.65
2023-03-26T00:33:21.993Z,0.63
2023-03-26T00:38:37.606Z,0.95
2023-03-26T01:27:36.540Z,1.40
2023-03-26T01:33:02.420Z,1.05
2023-03-26T01:38:24.191Z,1.33
2023-03-26T01:43:41.017Z,3.00
2023-03-26T01:49:11.652Z,2.13
2023-03-26T04:40:10.878Z,3.67
2023-03-26T04:45:23.744Z,9.65
2023-03-26T04:50:32.030Z,4.63
2023-03-26T04:55:44.271Z,4.28
2023-03-26T07:41:04.112Z,4.18
2023-03-26T07:47:15.898Z,5.00
2023-03-26T07:51:49.455Z,8.50
2023-03-26T07:57:04.243Z,5.50
2023-03-26T08:02:37.690Z,5.18
2023-03-26T08:08:19.022Z,6.25
2023-03-26T08:13:38.112Z,7.05
2023-03-26T09:20:40.306Z,9.43
2023-03-26T09:26:00.405Z,11.90
2023-03-26T09:31:45.469Z,9.45
2023-03-26T09:37:24.947Z,8.73
2023-03-26T09:43:07.005Z,12.45
2023-03-26T10:51:50.171Z,7.55
2023-03-26T10:56:57.563Z,15.27
2023-03-26T11:02:30.353Z,7.38
2023-03-26T11:07:49.768Z,15.52
2023-03-26T12:24:31.922Z,10.25
2023-03-26T13:28:27.638Z,7.55
2023-03-26T13:33:43.369Z,9.10
2023-03-26T13:39:04.196Z,12.30
2023-03-26T13:44:21.093Z,7.68
2023-03-26T13:49:41.242Z,11.43
2023-03-26T13:54:50.976Z,8.02
2023-03-26T14:00:02.238Z,9.45
2023-03-26T14:05:16.778Z,10.13
2023-03-26T14:10:32.968Z,8.93
2023-03-26T14:15:43.711Z,8.82
2023-03-26T14:21:14.280Z,10.38
2023-03-26T14:27:02.999Z,11.45
2023-03-26T14:32:32.001Z,7.25
2023-03-26T14:37:53.781Z,8.35
2023-03-26T14:43:21.373Z,8.25
2023-03-26T14:48:59.075Z,6.93
2023-03-26T14:54:06.960Z,12.13
2023-03-26T15:00:02.263Z,7.13
2023-03-26T15:05:49.661Z,11.48
2023-03-26T15:11:20.608Z,9.93
2023-03-26T15:16:52.078Z,7.40
2023-03-26T15:22:31.704Z,8.07
2023-03-26T15:28:22.934Z,10.88
2023-03-26T16:36:43.775Z,10.55
2023-03-26T16:42:11.513Z,9.90
2023-03-26T16:47:24.165Z,11.50
2023-03-26T16:52:48.143Z,7.60
2023-03-26T16:57:57.608Z,7.50
2023-03-26T17:03:26.289Z,8.35
2023-03-26T17:09:48.113Z,8.63
2023-03-26T17:46:03.215Z,10.80
2023-03-26T17:51:23.778Z,10.90
2023-03-26T17:56:46.457Z,12.18
2023-03-26T18:02:07.909Z,12.63
2023-03-26T18:07:36.106Z,15.90
2023-03-26T18:13:18.844Z,13.43
2023-03-26T18:18:31.344Z,16.02
2023-03-26T18:23:45.247Z,13.18
2023-03-26T18:28:53.067Z,10.10
2023-03-26T18:34:08.778Z,12.88
2023-03-26T18:39:13.918Z,13.52
2023-03-26T18:44:20.866Z,11.52
2023-03-26T18:49:34.817Z,10.10
2023-03-26T18:54:39.912Z,15.32
2023-03-26T18:59:45.672Z,9.55
2023-03-26T19:04:55.549Z,11.80
2023-03-26T19:10:14.121Z,10.73
2023-03-26T19:15:20.010Z,15.10
2023-03-26T19:20:28.050Z,12.88
2023-03-26T19:25:45.345Z,17.15
2023-03-26T19:30:53.060Z,9.30
2023-03-26T19:36:23.342Z,13.10
2023-03-26T19:41:33.736Z,20.95
2023-03-26T19:46:54.480Z,13.60
2023-03-26T19:52:22.025Z,10.27
2023-03-26T19:57:47.609Z,13.88
2023-03-26T20:02:52.831Z,15.38
2023-03-26T20:08:00.371Z,14.38
2023-03-26T20:13:07.449Z,10.60
2023-03-26T20:18:13.717Z,14.85
2023-03-26T20:23:20.087Z,12.65
2023-03-26T20:28:30.455Z,17.65
2023-03-26T20:33:39.267Z,14.07
2023-03-26T20:38:46.655Z,14.40
2023-03-26T20:44:02.052Z,18.58
2023-03-26T20:49:11.111Z,13.70
2023-03-26T20:54:26.096Z,17.88
2023-03-26T20:59:31.189Z,11.27
2023-03-26T21:44:19.430Z,16.02
2023-03-26T21:49:25.891Z,15.03
2023-03-26T21:54:32.588Z,12.18
2023-03-26T21:59:54.222Z,13.98
2023-03-26T22:05:16.704Z,13.60
2023-03-26T22:10:20.084Z,15.68
2023-03-26T22:15:26.843Z,14.38
2023-03-26T22:20:35.316Z,11.48
2023-03-26T22:25:44.461Z,13.05
2023-03-26T22:30:53.674Z,17.77
2023-03-26T22:36:23.477Z,15.40
2023-03-26T23:20:15.027Z,16.42
